This is the latest recevied weather packets stored in our database for station/object R2AKT-13. If no packets are shown the sender has not sent any weather packets the latest 1 day(s).
| Time | Temp. | Humidity | Pressure | Rain* | Wind** | Luminosity | Snow |
|---|---|---|---|---|---|---|---|
| 1778092309 | 18.33° C | 52% | 986.3 hPa | - | 0.45 m/s, 221° | - | - |
| 1778091759 | 18.89° C | 52% | 986.3 hPa | - | 0.89 m/s, 195° | - | - |
| 1778089629 | 18.89° C | 52% | 986.1 hPa | - | 0.45 m/s, 171° | - | - |
| 1778088049 | 19.44° C | 53% | 985.9 hPa | - | 0.89 m/s, 224° | - | - |
| 1778087029 | 20° C | 51% | 985.7 hPa | - | 0.89 m/s, 239° | - | - |
| 1778085384 | 20.56° C | 49% | 985.4 hPa | - | 0.45 m/s, 178° | - | - |
| 1778082099 | 21.67° C | 46% | 985 hPa | - | 2.24 m/s, 262° | - | - |
| 1778080994 | 22.22° C | 45% | 984.9 hPa | - | 1.79 m/s, 308° | - | - |
| 1778078899 | 22.78° C | 44% | 984.8 hPa | - | 1.34 m/s, 280° | - | - |
| 1778078389 | 23.33° C | 42% | 984.8 hPa | - | 1.34 m/s, 137° | - | - |
| 1778074609 | 22.78° C | 43% | 984.6 hPa | - | 1.79 m/s, 180° | - | - |
| 1778072469 | 23.89° C | 37% | 984.2 hPa | - | 1.34 m/s, 217° | - | - |
| 1778069229 | 23.33° C | 39% | 984.3 hPa | - | 1.79 m/s, 209° | - | - |
| 1778066049 | 23.33° C | 40% | 984.2 hPa | - | 0.89 m/s, 201° | - | - |
| 1778064909 | 23.33° C | 40% | 984.2 hPa | - | 0.89 m/s, 222° | - | - |
| 1778062819 | 21.67° C | 44% | 984.4 hPa | - | 0.89 m/s, 266° | - | - |
| 1778062314 | 21.11° C | 45% | 984.4 hPa | - | 0.45 m/s, 257° | - | - |
| 1778061829 | 21.67° C | 44% | 984.2 hPa | - | 1.34 m/s, 267° | - | - |
| 1778060714 | 21.11° C | 45% | 984.4 hPa | - | 0.45 m/s, 201° | - | - |
| 1778060124 | 21.11° C | 44% | 984.4 hPa | - | 0 m/s | - | - |
| 1778059644 | 21.67° C | 45% | 984.4 hPa | - | 0.45 m/s, 264° | - | - |
| 1778059129 | 21.11° C | 46% | 984.3 hPa | - | 0.45 m/s, 100° | - | - |
| 1778058539 | 21.11° C | 45% | 984.4 hPa | - | 0 m/s | - | - |
| 1778057984 | 20.56° C | 47% | 984.4 hPa | - | 0 m/s | - | - |
| 1778057469 | 20.56° C | 46% | 984.4 hPa | - | 0.45 m/s, 266° | - | - |
* Rain since midnight (hover to see other rain measurements)
** Current wind speed in m/s (hover to see current wind gust speed)